Time;durP1;ratioP1;P1;durP2;ratioP2;P2;SDS_P1;SDS_P2;PMS_P1;PMS_P2;Temp;Humidity;BMP_temperature;BMP_pressure;BME280_temperature;BME280_humidity;BME280_pressure;Samples;Min_cycle;Max_cycle;Signal;HPM_P1;HPM_P2
2021/06/15 00:02:27;;;;;;;6.60;2.38;;;;;;;16.68;56.20;100494.06;5055512;28;20501;-74
2021/06/15 00:04:59;;;;;;;5.55;2.80;;;;;;;16.69;56.54;100493.13;5055180;28;20072;-75
2021/06/15 00:07:27;;;;;;;5.88;2.42;;;;;;;16.67;56.81;100498.59;5055306;28;20037;-74
2021/06/15 00:09:55;;;;;;;6.78;2.15;;;;;;;16.73;56.71;100500.00;5055169;28;20041;-73
2021/06/15 00:12:24;;;;;;;7.22;2.40;;;;;;;16.80;56.58;100498.50;5055436;28;20048;-72
2021/06/15 00:14:52;;;;;;;5.55;2.25;;;;;;;16.73;56.97;100497.28;5054788;28;20072;-75
2021/06/15 00:17:20;;;;;;;6.22;2.22;;;;;;;16.73;57.18;100502.69;5055036;28;20102;-73
2021/06/15 00:19:48;;;;;;;8.95;2.70;;;;;;;16.54;57.43;100501.44;5054906;28;20041;-74
2021/06/15 00:22:18;;;;;;;6.97;2.70;;;;;;;16.37;58.57;100499.25;5054688;28;20045;-74
2021/06/15 00:24:46;;;;;;;5.40;2.60;;;;;;;16.29;59.54;100507.09;5055437;28;20099;-74
2021/06/15 00:27:15;;;;;;;6.50;2.47;;;;;;;16.24;59.54;100503.91;5054761;28;20049;-70
2021/06/15 00:29:43;;;;;;;4.88;2.20;;;;;;;16.20;59.73;100502.44;5054806;28;20073;-70
2021/06/15 00:32:11;;;;;;;5.30;2.47;;;;;;;16.11;59.60;100503.16;5054781;28;20049;-71
2021/06/15 00:34:42;;;;;;;6.47;2.50;;;;;;;16.13;59.02;100501.22;5054764;28;20047;-71
2021/06/15 00:37:13;;;;;;;5.90;2.85;;;;;;;16.13;58.85;100506.63;5054695;28;20791;-71
2021/06/15 00:39:42;;;;;;;6.72;2.53;;;;;;;16.11;59.70;100503.16;5054557;28;20049;-71
2021/06/15 00:42:11;;;;;;;7.93;2.50;;;;;;;16.11;60.05;100500.47;5054350;28;20037;-72
2021/06/15 00:44:39;;;;;;;7.68;2.60;;;;;;;16.12;59.45;100500.38;5054639;28;20045;-72
2021/06/15 00:47:08;;;;;;;5.93;2.97;;;;;;;16.15;59.87;100492.06;5054184;28;20107;-72
2021/06/15 00:49:37;;;;;;;5.35;2.58;;;;;;;16.23;59.97;100491.44;5054390;28;20135;-71
2021/06/15 00:52:06;;;;;;;7.35;2.58;;;;;;;16.13;60.42;100490.47;5054118;28;20106;-72
2021/06/15 00:54:35;;;;;;;4.63;2.83;;;;;;;16.16;60.13;100495.59;5053670;28;20068;-72
2021/06/15 00:57:06;;;;;;;6.05;2.70;;;;;;;15.98;60.91;100487.16;5054117;28;20048;-73
2021/06/15 00:59:35;;;;;;;6.57;3.00;;;;;;;15.84;61.69;100485.56;5054308;28;20052;-75
2021/06/15 01:02:03;;;;;;;5.00;2.70;;;;;;;15.65;62.79;100485.28;5053907;28;20375;-75
2021/06/15 01:04:31;;;;;;;5.32;2.72;;;;;;;15.86;62.58;100475.53;5054270;28;20041;-71
2021/06/15 01:07:08;;;;;;;8.10;2.90;;;;;;;15.73;63.16;100474.78;5054023;28;20049;-72
2021/06/15 01:09:40;;;;;;;5.55;3.17;;;;;;;15.66;63.34;100482.47;5054351;28;20037;-72
2021/06/15 01:12:22;;;;;;;4.68;3.03;;;;;;;15.54;63.84;100480.69;5053733;28;20059;-72
2021/06/15 01:15:01;;;;;;;5.55;2.97;;;;;;;15.47;64.50;100482.13;5053822;28;20410;-72
2021/06/15 01:17:39;;;;;;;8.20;3.45;;;;;;;15.49;64.70;100484.69;5054099;28;20045;-74
2021/06/15 01:20:17;;;;;;;6.57;2.97;;;;;;;15.18;66.16;100478.97;5053568;28;20127;-73
2021/06/15 01:23:10;;;;;;;9.73;3.30;;;;;;;15.12;66.60;100479.44;5053879;28;20059;-73
2021/06/15 01:25:49;;;;;;;6.07;3.15;;;;;;;15.19;66.36;100483.38;5054254;28;20041;-73
2021/06/15 01:28:23;;;;;;;6.70;3.50;;;;;;;15.21;66.45;100481.44;5053548;28;20486;-73
2021/06/15 01:30:59;;;;;;;6.22;3.38;;;;;;;15.11;67.00;100485.78;5053832;28;20053;-75
2021/06/15 01:33:29;;;;;;;6.35;3.35;;;;;;;14.95;67.70;100482.53;5053879;28;20045;-74
2021/06/15 01:35:59;;;;;;;5.72;3.38;;;;;;;14.84;68.57;100473.44;5053601;28;20048;-77
2021/06/15 01:38:35;;;;;;;5.07;3.22;;;;;;;14.79;68.90;100480.13;5053833;28;20045;-74
2021/06/15 01:41:09;;;;;;;7.63;3.38;;;;;;;14.94;68.16;100472.75;5053423;28;20116;-74
2021/06/15 01:43:43;;;;;;;6.85;3.08;;;;;;;15.17;67.42;100479.97;5053509;28;20056;-74
2021/06/15 01:46:13;;;;;;;6.88;3.38;;;;;;;15.05;68.04;100478.16;5053045;28;20065;-75
2021/06/15 01:48:51;;;;;;;7.43;3.35;;;;;;;14.88;68.70;100469.56;5053767;28;20163;-75
2021/06/15 01:51:22;;;;;;;8.48;3.72;;;;;;;14.74;69.28;100467.03;5053217;28;20045;-75
2021/06/15 01:53:57;;;;;;;6.53;3.47;;;;;;;14.92;69.00;100474.69;5053262;28;20041;-70
2021/06/15 01:56:27;;;;;;;8.85;3.50;;;;;;;14.51;70.23;100473.25;5053735;28;20049;-69
2021/06/15 01:59:00;;;;;;;7.57;3.63;;;;;;;14.52;70.49;100472.28;5053606;28;20081;-68
2021/06/15 02:01:29;;;;;;;7.28;3.47;;;;;;;14.54;70.50;100471.19;5053261;28;20041;-70
2021/06/15 02:03:58;;;;;;;7.97;3.70;;;;;;;14.63;69.99;100475.03;5053209;28;20383;-69
2021/06/15 02:06:29;;;;;;;8.38;3.90;;;;;;;14.39;71.46;100477.66;5052786;28;20060;-69
2021/06/15 02:08:59;;;;;;;6.93;3.95;;;;;;;14.33;71.90;100468.22;5053322;28;20045;-69
2021/06/15 02:11:30;;;;;;;7.00;3.70;;;;;;;14.39;71.75;100468.75;5053020;28;20048;-69
2021/06/15 02:14:04;;;;;;;8.15;4.43;;;;;;;14.33;72.06;100476.25;5053002;28;20074;-74
2021/06/15 02:16:33;;;;;;;7.72;4.18;;;;;;;14.31;72.43;100478.22;5052892;28;20045;-72
2021/06/15 02:19:02;;;;;;;8.77;4.00;;;;;;;14.31;72.02;100475.53;5052558;28;20045;-71
2021/06/15 02:21:33;;;;;;;8.02;3.80;;;;;;;14.27;72.08;100475.84;5053196;28;20045;-74
2021/06/15 02:24:02;;;;;;;9.05;4.10;;;;;;;14.28;71.97;100478.44;5052865;28;20049;-74
2021/06/15 02:26:32;;;;;;;5.72;3.72;;;;;;;14.27;71.91;100479.38;5053198;28;20144;-73
2021/06/15 02:29:02;;;;;;;9.68;4.30;;;;;;;14.25;71.50;100481.31;5053045;28;20045;-76
2021/06/15 02:31:38;;;;;;;9.07;4.32;;;;;;;14.07;72.64;100485.31;5052895;28;20045;-73
2021/06/15 02:34:09;;;;;;;7.65;4.22;;;;;;;14.33;71.76;100478.09;5052848;28;20053;-73
2021/06/15 02:36:39;;;;;;;8.68;3.78;;;;;;;14.42;71.43;100476.56;5059403;28;20041;-73
2021/06/15 02:39:11;;;;;;;8.98;4.15;;;;;;;14.39;71.51;100472.28;5053901;28;20045;-72
2021/06/15 02:41:42;;;;;;;6.90;3.97;;;;;;;14.00;73.34;100481.38;5051515;28;20061;-72
2021/06/15 02:44:18;;;;;;;6.55;3.80;;;;;;;14.05;73.12;100484.56;5052473;28;20493;-74
2021/06/15 02:47:08;;;;;;;6.75;4.28;;;;;;;14.09;73.24;100482.50;5052418;28;20089;-74
2021/06/15 02:49:45;;;;;;;9.25;4.05;;;;;;;14.14;72.98;100483.91;5052839;28;20128;-74
2021/06/15 02:52:24;;;;;;;8.35;4.22;;;;;;;14.17;72.81;100489.06;5052309;28;20078;-74
2021/06/15 02:54:58;;;;;;;8.13;4.25;;;;;;;14.14;73.02;100475.88;5052897;28;20041;-74
2021/06/15 02:57:27;;;;;;;6.80;4.10;;;;;;;14.14;73.00;100488.44;5052536;28;20052;-74
2021/06/15 02:59:59;;;;;;;7.72;4.00;;;;;;;14.10;73.27;100484.25;5052591;28;20041;-71
2021/06/15 03:02:27;;;;;;;7.20;4.43;;;;;;;14.04;73.31;100482.84;5052365;28;20060;-72
2021/06/15 03:04:56;;;;;;;9.65;5.40;;;;;;;14.19;72.77;100483.59;5052322;28;20394;-72
2021/06/15 03:07:24;;;;;;;8.18;4.25;;;;;;;14.08;73.10;100489.72;5052375;28;20041;-71
2021/06/15 03:09:55;;;;;;;8.85;4.38;;;;;;;14.21;73.33;100498.63;5052747;28;20053;-72
2021/06/15 03:12:25;;;;;;;7.97;4.20;;;;;;;14.16;73.40;100500.75;5052112;28;20045;-74
2021/06/15 03:15:01;;;;;;;7.13;3.90;;;;;;;14.32;72.77;100498.69;5052487;28;20049;-73
2021/06/15 03:17:33;;;;;;;7.03;4.10;;;;;;;14.22;73.30;100496.78;5053948;28;20375;-75
2021/06/15 03:20:04;;;;;;;7.60;4.00;;;;;;;14.45;72.68;100492.47;5056274;28;20063;-74
2021/06/15 03:22:41;;;;;;;8.45;4.25;;;;;;;14.43;72.51;100499.75;5056465;28;20033;-73
2021/06/15 03:25:12;;;;;;;6.85;4.13;;;;;;;14.49;72.77;100504.72;5056118;28;20044;-74
2021/06/15 03:27:49;;;;;;;7.22;4.20;;;;;;;14.88;70.78;100504.47;5055038;28;20405;-70
2021/06/15 03:30:23;;;;;;;6.43;4.10;;;;;;;15.01;69.76;100506.25;5055937;28;20428;-70
2021/06/15 03:32:55;;;;;;;7.93;4.10;;;;;;;15.21;69.06;100494.00;5056297;28;20072;-72
2021/06/15 03:35:27;;;;;;;7.38;3.90;;;;;;;16.05;65.42;100498.28;5055755;28;20052;-72
2021/06/15 03:38:00;;;;;;;6.68;3.45;;;;;;;17.00;62.14;100494.16;5055816;28;20032;-72
2021/06/15 03:40:33;;;;;;;8.43;3.90;;;;;;;17.76;59.31;100494.91;5055712;28;20456;-71
2021/06/15 03:43:01;;;;;;;;;;;;;;;18.64;56.21;100486.25;5056353;28;20037;-70
2021/06/15 03:45:36;;;;;;;7.25;3.42;;;;;;;19.13;54.59;100488.06;5054158;28;20316;-70
2021/06/15 03:48:07;;;;;;;7.80;3.90;;;;;;;19.67;52.21;100486.63;5055822;28;20053;-71
2021/06/15 03:50:37;;;;;;;9.73;3.90;;;;;;;20.16;50.83;100484.63;5055597;28;20051;-72
2021/06/15 03:53:09;;;;;;;6.28;3.65;;;;;;;20.31;50.67;100485.88;5055616;28;20359;-71
2021/06/15 03:55:42;;;;;;;8.30;3.90;;;;;;;20.47;49.94;100480.69;5055609;28;20568;-70
2021/06/15 03:58:11;;;;;;;6.10;3.10;;;;;;;20.96;48.70;100485.81;5055203;28;20068;-71
2021/06/15 04:00:46;;;;;;;7.45;3.45;;;;;;;21.09;48.28;100480.88;5055684;28;20297;-70
2021/06/15 04:03:16;;;;;;;5.90;3.28;;;;;;;21.45;47.03;100479.03;5055129;28;20052;-72
2021/06/15 04:05:46;;;;;;;8.70;3.63;;;;;;;21.79;45.83;100473.69;5055184;28;20410;-72
2021/06/15 04:08:16;;;;;;;6.20;3.20;;;;;;;21.49;45.92;100482.28;5054040;28;20496;-71
2021/06/15 04:10:47;;;;;;;8.20;3.33;;;;;;;21.83;44.67;100482.38;5055311;28;20045;-71
2021/06/15 04:13:17;;;;;;;5.70;3.00;;;;;;;22.02;44.73;100481.31;5054850;28;20041;-70
2021/06/15 04:15:48;;;;;;;12.98;3.75;;;;;;;22.49;43.66;100482.63;5055548;28;20041;-74
2021/06/15 04:18:20;;;;;;;5.82;2.78;;;;;;;22.61;43.34;100468.72;5054737;28;20043;-73
2021/06/15 04:20:52;;;;;;;8.25;2.90;;;;;;;23.05;42.52;100474.78;5055272;28;20041;-74
2021/06/15 04:23:27;;;;;;;9.23;3.50;;;;;;;23.17;41.95;100478.91;5054932;28;20045;-73
2021/06/15 04:25:57;;;;;;;6.07;3.40;;;;;;;23.43;42.10;100481.47;5054923;28;20478;-73
2021/06/15 04:28:25;;;;;;;7.88;3.50;;;;;;;23.90;40.81;100480.78;5054711;28;20045;-73
2021/06/15 04:30:55;;;;;;;7.57;3.70;;;;;;;23.95;40.46;100481.97;5055135;28;20040;-74
2021/06/15 04:33:28;;;;;;;6.07;3.42;;;;;;;24.40;39.15;100485.97;5054784;28;20056;-73
2021/06/15 04:35:59;;;;;;;;;;;;;;;24.22;38.92;100485.31;5055344;28;20040;-66
2021/06/15 04:38:38;;;;;;;7.20;2.92;;;;;;;23.94;39.47;100477.56;5054424;28;19924;-70
2021/06/15 04:41:10;;;;;;;6.35;3.30;;;;;;;23.36;40.35;100480.47;5054722;28;20041;-68
2021/06/15 04:43:43;;;;;;;7.50;3.17;;;;;;;24.45;38.61;100489.03;5054989;28;20033;-69
2021/06/15 04:46:20;;;;;;;7.82;2.90;;;;;;;24.75;37.87;100481.88;5054348;28;20078;-73
2021/06/15 04:48:54;;;;;;;7.93;3.22;;;;;;;24.79;37.22;100488.69;5053423;28;20060;-66
2021/06/15 04:51:23;;;;;;;5.88;2.70;;;;;;;25.22;36.74;100483.69;5054090;28;20041;-72
2021/06/15 04:53:58;;;;;;;6.18;3.03;;;;;;;25.23;37.06;100487.25;5054497;28;20041;-68
2021/06/15 04:56:29;;;;;;;9.85;3.60;;;;;;;25.88;35.60;100489.47;5053851;28;20045;-68
2021/06/15 04:59:00;;;;;;;6.95;3.17;;;;;;;25.65;36.43;100494.94;5054083;28;20048;-69
2021/06/15 05:01:30;;;;;;;7.07;2.70;;;;;;;25.68;35.27;100503.63;5053997;28;20045;-69
2021/06/15 05:04:00;;;;;;;7.15;2.63;;;;;;;25.64;35.98;100491.34;5054774;28;20080;-69
2021/06/15 05:06:28;;;;;;;5.10;2.88;;;;;;;26.35;34.40;100505.53;5054402;28;20041;-70
2021/06/15 05:08:59;;;;;;;6.38;2.90;;;;;;;26.70;34.00;100503.94;5054345;28;20049;-69
2021/06/15 05:11:29;;;;;;;6.78;2.85;;;;;;;26.57;33.47;100502.91;5054030;28;20477;-70
2021/06/15 05:14:00;;;;;;;7.88;2.90;;;;;;;26.32;34.13;100499.59;5053964;28;20051;-70
2021/06/15 05:16:33;;;;;;;8.38;2.53;;;;;;;26.76;33.19;100497.72;5054059;28;20033;-68
2021/06/15 05:19:02;;;;;;;6.25;2.47;;;;;;;26.72;33.07;100499.09;5053617;28;20041;-68
2021/06/15 05:21:35;;;;;;;6.45;2.58;;;;;;;26.68;33.41;100508.75;5053651;28;20053;-67
2021/06/15 05:24:11;;;;;;;7.05;2.97;;;;;;;26.91;32.77;100505.03;5054288;28;20048;-69
2021/06/15 05:26:39;;;;;;;6.97;2.65;;;;;;;26.63;33.39;100510.34;5053856;28;20095;-69
2021/06/15 05:29:07;;;;;;;5.95;2.55;;;;;;;26.47;32.66;100511.41;5054008;28;20489;-69
2021/06/15 05:31:37;;;;;;;7.10;2.80;;;;;;;27.16;33.04;100516.50;5053434;28;20053;-68
2021/06/15 05:34:05;;;;;;;5.45;2.83;;;;;;;27.46;32.77;100514.50;5053648;28;20123;-67
2021/06/15 05:36:33;;;;;;;7.60;2.80;;;;;;;27.58;32.06;100507.44;5053467;28;20092;-68
2021/06/15 05:39:01;;;;;;;6.15;2.70;;;;;;;27.92;31.69;100515.81;5053443;28;20106;-67
2021/06/15 05:41:29;;;;;;;6.65;3.00;;;;;;;28.41;29.72;100509.41;5053084;28;20494;-69
2021/06/15 05:43:57;;;;;;;6.47;2.50;;;;;;;27.85;31.29;100514.91;5053906;28;20037;-69
2021/06/15 05:46:25;;;;;;;5.22;2.10;;;;;;;28.25;30.46;100509.69;5053095;28;20056;-68
2021/06/15 05:48:56;;;;;;;5.20;2.45;;;;;;;28.30;30.09;100518.22;5053445;28;20049;-66
2021/06/15 05:51:24;;;;;;;10.68;3.05;;;;;;;28.34;29.68;100514.00;5053159;28;20055;-67
2021/06/15 05:53:52;;;;;;;6.53;2.50;;;;;;;28.79;29.40;100517.22;5053245;28;20482;-67
2021/06/15 05:56:20;;;;;;;7.05;2.70;;;;;;;29.02;29.24;100515.00;5053038;28;20041;-69
2021/06/15 05:58:49;;;;;;;8.13;2.90;;;;;;;29.12;29.01;100516.50;5053359;28;20041;-71
2021/06/15 06:01:17;;;;;;;5.68;2.25;;;;;;;28.83;28.66;100526.72;5053146;28;20056;-75
2021/06/15 06:03:51;;;;;;;4.20;2.28;;;;;;;28.88;28.73;100523.38;5053248;28;20049;-74
2021/06/15 06:09:06;;;;;;;5.47;2.45;;;;;;;30.12;26.42;100521.13;5053081;28;20048;-71
2021/06/15 06:11:35;;;;;;;4.90;2.10;;;;;;;29.85;27.15;100517.50;5053144;28;20041;-72
2021/06/15 06:14:03;;;;;;;4.07;2.17;;;;;;;30.08;26.08;100520.69;5052941;28;20498;-74
2021/06/15 06:16:33;;;;;;;5.07;1.98;;;;;;;30.34;26.27;100522.56;5053013;28;20106;-74
2021/06/15 06:19:14;;;;;;;6.20;2.38;;;;;;;29.99;27.16;100519.16;5053102;28;20390;-72
2021/06/15 06:21:45;;;;;;;5.68;2.10;;;;;;;29.79;27.65;100523.84;5052545;28;20041;-72
2021/06/15 06:24:14;;;;;;;8.65;2.20;;;;;;;30.44;25.81;100533.13;5052793;28;20045;-68
2021/06/15 06:26:42;;;;;;;5.65;1.90;;;;;;;30.16;25.78;100528.72;5052553;28;20052;-69
2021/06/15 06:29:10;;;;;;;5.75;2.20;;;;;;;30.11;25.96;100516.66;5052899;28;20094;-68
2021/06/15 06:31:39;;;;;;;6.35;2.30;;;;;;;29.87;25.20;100527.22;5051307;28;20057;-69
2021/06/15 06:34:07;;;;;;;4.15;2.10;;;;;;;30.22;26.02;100517.94;5052698;28;20487;-68
2021/06/15 06:36:36;;;;;;;8.38;2.53;;;;;;;30.04;25.91;100521.31;5052308;28;20060;-68
2021/06/15 06:39:07;;;;;;;4.95;1.88;;;;;;;30.43;25.76;100517.66;5052344;28;20449;-68
2021/06/15 06:41:39;;;;;;;4.10;2.05;;;;;;;30.70;24.92;100521.22;5052364;28;20509;-68
2021/06/15 06:44:08;;;;;;;3.72;1.90;;;;;;;30.72;24.64;100519.94;5052454;28;20045;-67
2021/06/15 06:46:36;;;;;;;3.80;2.00;;;;;;;30.19;25.28;100516.44;5052349;28;20513;-66
2021/06/15 06:49:05;;;;;;;4.78;2.15;;;;;;;30.27;24.99;100516.22;5052765;28;20465;-69
2021/06/15 06:51:33;;;;;;;5.45;2.05;;;;;;;31.02;25.29;100511.13;5052456;28;20041;-69
2021/06/15 06:54:02;;;;;;;5.03;2.20;;;;;;;30.93;24.95;100506.91;5056373;28;20049;-68
2021/06/15 06:56:31;;;;;;;7.18;2.40;;;;;;;30.67;24.94;100511.47;5056230;28;20393;-69
2021/06/15 06:59:00;;;;;;;4.78;1.90;;;;;;;30.36;24.93;100512.16;5056412;28;20051;-66
2021/06/15 07:01:30;;;;;;;6.47;2.28;;;;;;;29.13;26.72;100504.47;5056284;28;20158;-67
2021/06/15 07:04:01;;;;;;;4.97;2.00;;;;;;;28.20;27.57;100513.06;5056523;28;20128;-67
2021/06/15 07:06:29;;;;;;;5.05;2.13;;;;;;;27.92;28.14;100510.31;5056177;28;20047;-68
2021/06/15 07:08:58;;;;;;;4.00;1.90;;;;;;;27.71;29.49;100510.38;5056681;28;20052;-67
2021/06/15 07:11:26;;;;;;;4.80;2.10;;;;;;;27.58;29.22;100505.56;5056276;28;20133;-68
2021/06/15 07:13:56;;;;;;;3.50;2.00;;;;;;;27.15;29.92;100512.09;5056207;28;20493;-67
2021/06/15 07:16:24;;;;;;;5.07;2.10;;;;;;;26.92;29.71;100509.44;5055968;28;20090;-68
2021/06/15 07:18:53;;;;;;;5.88;2.28;;;;;;;26.94;30.95;100504.66;5056396;28;20436;-68
2021/06/15 07:21:21;;;;;;;5.38;2.30;;;;;;;26.79;29.67;100499.19;5056564;28;20065;-67
2021/06/15 07:23:49;;;;;;;6.57;2.40;;;;;;;26.46;31.23;100499.63;5056304;28;20045;-68
2021/06/15 07:26:20;;;;;;;7.15;2.20;;;;;;;26.46;30.10;100502.38;5054919;28;20558;-68
2021/06/15 07:28:48;;;;;;;4.57;2.22;;;;;;;26.76;29.94;100497.72;5056309;28;20045;-68
2021/06/15 07:31:18;;;;;;;4.68;2.00;;;;;;;26.63;30.29;100508.47;5055961;28;20049;-68
2021/06/15 07:33:46;;;;;;;7.15;2.40;;;;;;;26.32;29.94;100496.84;5055828;28;20049;-68
2021/06/15 07:36:14;;;;;;;4.32;2.20;;;;;;;26.27;31.31;100507.53;5056137;28;20056;-68
2021/06/15 07:38:43;;;;;;;6.35;2.03;;;;;;;26.12;30.93;100505.63;5055709;28;20096;-68
2021/06/15 07:41:11;;;;;;;4.90;2.10;;;;;;;25.92;31.36;100507.19;5056102;28;20049;-68
2021/06/15 07:43:40;;;;;;;5.75;1.98;;;;;;;25.65;32.19;100503.13;5055517;28;20448;-68
2021/06/15 07:46:08;;;;;;;4.18;2.03;;;;;;;25.14;32.56;100499.25;5054292;28;20498;-68
2021/06/15 07:48:37;;;;;;;6.05;2.20;;;;;;;25.15;32.74;100495.50;5055496;28;20053;-68
2021/06/15 07:51:06;;;;;;;6.75;2.13;;;;;;;25.24;32.33;100499.88;5055690;28;20049;-68
2021/06/15 07:53:34;;;;;;;4.32;2.08;;;;;;;25.37;32.82;100489.19;5055377;28;20071;-69
2021/06/15 07:56:06;;;;;;;5.95;2.20;;;;;;;25.51;32.11;100493.03;5055561;28;20055;-67
2021/06/15 07:58:34;;;;;;;7.45;2.15;;;;;;;25.00;32.82;100482.63;5055295;28;20045;-69
2021/06/15 08:01:02;;;;;;;6.68;2.33;;;;;;;25.02;33.12;100486.03;5054169;28;20084;-67
2021/06/15 08:03:31;;;;;;;4.47;2.25;;;;;;;24.74;33.39;100487.53;5054723;28;20041;-68
2021/06/15 08:06:04;;;;;;;5.68;1.90;;;;;;;24.68;34.01;100480.03;5055664;28;20072;-67
2021/06/15 08:08:32;;;;;;;6.32;2.40;;;;;;;24.53;33.68;100475.34;5055212;28;20049;-67
2021/06/15 08:11:03;;;;;;;3.85;1.95;;;;;;;24.57;33.26;100477.72;5055338;28;20098;-67
2021/06/15 08:13:31;;;;;;;6.03;2.20;;;;;;;24.63;33.21;100474.28;5055248;28;20049;-67
2021/06/15 08:15:59;;;;;;;4.47;2.35;;;;;;;24.83;33.20;100481.84;5055145;28;20045;-67
2021/06/15 08:18:28;;;;;;;5.60;2.30;;;;;;;24.96;33.20;100470.34;5055063;28;20041;-67
2021/06/15 08:20:57;;;;;;;3.85;2.10;;;;;;;24.91;32.80;100477.38;5055198;28;20041;-68
2021/06/15 08:23:28;;;;;;;6.50;2.17;;;;;;;25.07;33.34;100477.28;5054950;28;20048;-67
2021/06/15 08:25:57;;;;;;;5.50;2.30;;;;;;;25.00;32.59;100471.69;5055208;28;20394;-67
2021/06/15 08:28:25;;;;;;;4.35;2.20;;;;;;;25.01;32.51;100467.09;5055087;28;20068;-68
2021/06/15 08:30:53;;;;;;;4.63;1.98;;;;;;;25.12;31.61;100469.44;5055168;28;20049;-67
2021/06/15 08:33:24;;;;;;;6.10;2.10;;;;;;;25.16;32.20;100469.91;5055049;28;20045;-67
2021/06/15 08:35:52;;;;;;;9.10;2.20;;;;;;;25.15;32.98;100468.22;5054505;28;20076;-67
2021/06/15 08:38:21;;;;;;;3.90;1.90;;;;;;;25.14;31.73;100466.50;5054753;28;20045;-67
2021/06/15 08:40:52;;;;;;;4.78;2.28;;;;;;;25.19;32.27;100467.69;5054623;28;20091;-67
2021/06/15 08:43:21;;;;;;;6.93;2.10;;;;;;;25.44;32.23;100467.47;5054885;28;20541;-67
2021/06/15 08:45:50;;;;;;;5.03;2.30;;;;;;;25.03;31.99;100460.44;5054458;28;20425;-67
2021/06/15 08:48:19;;;;;;;5.65;1.90;;;;;;;25.11;31.90;100462.28;5054601;28;20037;-67
2021/06/15 08:50:49;;;;;;;9.07;2.05;;;;;;;25.18;31.81;100459.66;5054273;28;20045;-68
2021/06/15 08:53:20;;;;;;;4.00;2.08;;;;;;;25.20;31.92;100460.34;5054912;28;20047;-67
2021/06/15 08:55:56;;;;;;;4.47;2.20;;;;;;;25.46;31.52;100457.22;5054129;28;20103;-67
2021/06/15 08:58:39;;;;;;;5.43;2.00;;;;;;;25.48;31.64;100458.75;5054803;28;20055;-66
2021/06/15 09:01:10;;;;;;;7.07;2.20;;;;;;;25.49;32.32;100452.25;5054224;28;20053;-67
2021/06/15 09:03:39;;;;;;;3.38;1.70;;;;;;;25.47;30.96;100456.16;5054249;28;20474;-68
2021/06/15 09:06:07;;;;;;;4.90;2.08;;;;;;;25.53;31.88;100456.28;5054277;28;20056;-67
2021/06/15 09:08:52;;;;;;;4.45;1.90;;;;;;;25.50;31.33;100453.09;5054116;28;20037;-67
2021/06/15 09:11:23;;;;;;;4.10;1.88;;;;;;;25.32;30.58;100442.50;5054303;28;20056;-68
2021/06/15 09:13:52;;;;;;;4.82;2.05;;;;;;;25.30;31.76;100444.56;5053910;28;20055;-69
2021/06/15 09:16:23;;;;;;;5.90;1.98;;;;;;;24.98;30.59;100451.06;5053122;28;20045;-67
2021/06/15 09:18:54;;;;;;;4.15;1.80;;;;;;;24.63;31.74;100447.03;5053966;28;20174;-69
2021/06/15 09:21:43;;;;;;;6.60;2.20;;;;;;;24.99;31.87;100442.69;5053873;28;20052;-68
2021/06/15 09:24:14;;;;;;;5.93;2.00;;;;;;;25.13;32.27;100440.25;5053944;28;20041;-67
2021/06/15 09:27:08;;;;;;;4.47;1.75;;;;;;;25.31;31.44;100440.78;5053780;28;20059;-67
2021/06/15 09:29:38;;;;;;;5.72;1.88;;;;;;;25.35;31.39;100440.22;5053730;28;20072;-67
2021/06/15 09:32:08;;;;;;;3.72;1.75;;;;;;;25.57;31.37;100441.22;5053881;28;20510;-67
2021/06/15 09:34:55;;;;;;;4.90;1.92;;;;;;;25.38;30.76;100447.19;5053759;28;20061;-67
2021/06/15 09:37:38;;;;;;;4.47;1.98;;;;;;;25.40;31.47;100435.09;5053954;28;20033;-67
2021/06/15 09:40:13;;;;;;;3.53;1.70;;;;;;;25.68;31.34;100435.34;5054005;28;20441;-67
2021/06/15 09:42:56;;;;;;;4.88;1.90;;;;;;;25.66;31.09;100442.84;5053263;28;20045;-67
2021/06/15 09:45:27;;;;;;;4.10;2.00;;;;;;;25.38;31.51;100439.88;5053998;28;20494;-67
2021/06/15 09:48:25;;;;;;;5.32;1.98;;;;;;;25.63;31.68;100445.97;5053436;28;20373;-68
2021/06/15 09:50:57;;;;;;;4.22;1.60;;;;;;;25.78;30.71;100434.25;5053267;28;20064;-67
2021/06/15 09:53:29;;;;;;;4.68;2.05;;;;;;;25.65;30.90;100443.88;5053640;28;20390;-67
2021/06/15 09:55:59;;;;;;;5.32;1.77;;;;;;;25.77;31.35;100433.41;5053148;28;20036;-67
2021/06/15 09:58:46;;;;;;;4.38;1.73;;;;;;;25.79;30.84;100430.47;5053505;28;20045;-69
2021/06/15 10:01:32;;;;;;;5.65;2.10;;;;;;;25.52;30.70;100437.38;5053281;28;20068;-68
2021/06/15 10:04:09;;;;;;;6.23;2.17;;;;;;;25.34;31.34;100424.88;5053197;28;20044;-67
2021/06/15 10:06:38;;;;;;;4.53;1.77;;;;;;;25.16;31.81;100426.22;5053304;28;20437;-68
2021/06/15 10:09:07;;;;;;;3.50;1.75;;;;;;;25.08;31.25;100433.44;5053155;28;20413;-68
2021/06/15 10:11:36;;;;;;;3.03;1.88;;;;;;;24.90;31.66;100421.09;5052875;28;20047;-69
2021/06/15 10:14:06;;;;;;;5.00;1.63;;;;;;;24.95;31.61;100425.00;5052848;28;20045;-68
2021/06/15 10:16:34;;;;;;;3.30;1.85;;;;;;;24.89;32.44;100422.13;5053064;28;20049;-68
2021/06/15 10:19:03;;;;;;;4.68;2.10;;;;;;;25.24;32.32;100417.97;5053094;28;20596;-67
2021/06/15 10:21:34;;;;;;;5.13;2.10;;;;;;;25.45;32.25;100423.59;5053229;28;20037;-67
2021/06/15 10:24:06;;;;;;;4.15;1.80;;;;;;;25.00;30.49;100422.59;5053036;28;20095;-68
2021/06/15 10:26:35;;;;;;;3.72;1.52;;;;;;;24.83;31.87;100415.53;5052993;28;20049;-68
2021/06/15 10:29:12;;;;;;;4.25;2.00;;;;;;;24.93;32.24;100412.56;5053033;28;20056;-68
2021/06/15 10:31:43;;;;;;;3.95;1.70;;;;;;;24.93;32.16;100410.69;5052762;28;20453;-68
2021/06/15 10:34:12;;;;;;;3.60;1.98;;;;;;;24.93;31.72;100401.66;5053203;28;20044;-68
2021/06/15 10:36:42;;;;;;;3.85;1.90;;;;;;;24.90;32.78;100407.44;5052484;28;20107;-68
2021/06/15 10:39:18;;;;;;;8.20;2.17;;;;;;;25.07;31.63;100401.72;5052830;28;20052;-68
2021/06/15 10:41:47;;;;;;;3.58;1.77;;;;;;;25.13;32.36;100402.03;5052633;28;20474;-69
2021/06/15 10:44:17;;;;;;;5.32;2.05;;;;;;;25.46;32.53;100397.97;5052837;28;20033;-68
2021/06/15 10:46:46;;;;;;;8.73;4.78;;;;;;;25.64;32.07;100398.47;5052787;28;20385;-69
2021/06/15 10:49:15;;;;;;;4.57;1.90;;;;;;;25.56;31.20;100401.28;5053050;28;20095;-68
2021/06/15 10:51:57;;;;;;;6.70;2.40;;;;;;;25.67;31.54;100409.06;5052792;28;20093;-69
2021/06/15 10:54:35;;;;;;;4.60;2.10;;;;;;;25.52;31.13;100401.88;5052979;28;20087;-68
2021/06/15 10:57:22;;;;;;;4.03;2.17;;;;;;;25.27;31.19;100407.53;5052759;28;20052;-68
2021/06/15 11:00:09;;;;;;;7.85;2.03;;;;;;;25.29;31.37;100399.19;5052499;28;20067;-68
2021/06/15 11:02:38;;;;;;;4.75;2.35;;;;;;;25.37;31.42;100399.09;5052873;28;20041;-68
2021/06/15 11:05:38;;;;;;;3.92;2.20;;;;;;;25.58;31.76;100387.47;5052681;28;20109;-68
2021/06/15 11:08:18;;;;;;;5.75;2.20;;;;;;;25.72;31.78;100389.41;5052451;28;20045;-67
2021/06/15 11:10:53;;;;;;;4.90;2.10;;;;;;;25.86;31.88;100380.34;5052294;28;20041;-67
2021/06/15 11:13:43;;;;;;;5.47;2.47;;;;;;;25.95;31.64;100364.69;5052876;28;20065;-68
2021/06/15 11:16:33;;;;;;;5.70;2.33;;;;;;;25.90;31.47;100375.38;5052600;28;20487;-68
2021/06/15 11:19:33;;;;;;;5.45;2.40;;;;;;;25.78;31.75;100375.00;5052151;28;20051;-68
2021/06/15 11:22:03;;;;;;;4.18;2.13;;;;;;;25.62;31.32;100362.31;5010523;28;20081;-68
2021/06/15 11:24:34;;;;;;;4.72;2.13;;;;;;;25.73;31.47;100357.47;5044177;28;20132;-67
2021/06/15 11:27:04;;;;;;;8.63;2.30;;;;;;;25.94;31.23;100349.34;5050991;28;20053;-67
2021/06/15 11:29:36;;;;;;;4.97;2.08;;;;;;;25.87;30.97;100351.16;5052312;28;20068;-67
2021/06/15 11:32:26;;;;;;;3.22;1.85;;;;;;;25.71;30.89;100363.13;5052057;28;20045;-67
2021/06/15 11:35:17;;;;;;;4.68;2.00;;;;;;;25.56;31.04;100345.81;5052053;28;20478;-68
2021/06/15 11:37:49;;;;;;;5.45;2.00;;;;;;;25.57;31.40;100351.09;5051909;28;20048;-69
2021/06/15 11:40:30;;;;;;;3.58;2.00;;;;;;;25.61;30.98;100344.25;5056176;28;20037;-68
2021/06/15 11:43:21;;;;;;;4.28;1.80;;;;;;;25.52;30.73;100355.44;5055457;28;20041;-68
2021/06/15 11:45:52;;;;;;;4.07;2.13;;;;;;;25.89;31.60;100343.63;5055439;28;20061;-68
2021/06/15 11:48:33;;;;;;;4.60;2.20;;;;;;;26.05;31.65;100329.72;5056138;28;20045;-68
2021/06/15 11:51:06;;;;;;;4.97;2.15;;;;;;;26.00;30.42;100347.75;5055642;28;20149;-68
2021/06/15 11:53:37;;;;;;;5.25;1.83;;;;;;;25.71;30.30;100346.72;5055984;28;20549;-67